createdAt,value
2022-11-14T00:00:06.092Z,98383.91
2022-11-14T00:02:07.560Z,98382.25
2022-11-14T00:04:08.869Z,98384.72
2022-11-14T00:06:10.196Z,98389.78
2022-11-14T00:08:11.532Z,98380.31
2022-11-14T00:10:12.938Z,98379.38
2022-11-14T00:12:14.247Z,98379.22
2022-11-14T00:14:15.544Z,98366.25
2022-11-14T00:16:16.939Z,98365.22
2022-11-14T00:18:18.224Z,98365.06
2022-11-14T00:20:19.546Z,98361.59
2022-11-14T00:22:20.837Z,98359.75
2022-11-14T00:24:22.118Z,98351.97
2022-11-14T00:26:24.129Z,98344.28
2022-11-14T00:28:25.434Z,98338.25
2022-11-14T00:30:26.780Z,98341.59
2022-11-14T00:32:28.121Z,98347.50
2022-11-14T00:34:29.496Z,98344.97
2022-11-14T00:36:30.810Z,98340.72
2022-11-14T00:38:32.379Z,98338.97
2022-11-14T00:40:33.800Z,98330.44
2022-11-14T00:42:35.239Z,98343.97
2022-11-14T00:44:36.579Z,98334.66
2022-11-14T00:46:38.638Z,98344.91
2022-11-14T00:48:40.126Z,98360.31
2022-11-14T00:50:41.460Z,98350.91
2022-11-14T00:52:42.735Z,98356.19
2022-11-14T00:54:44.144Z,98350.44
2022-11-14T00:56:45.422Z,98349.69
2022-11-14T00:58:46.697Z,98344.63
2022-11-14T01:00:48.113Z,98350.63
2022-11-14T01:02:49.531Z,98348.13
2022-11-14T01:04:50.858Z,98349.94
2022-11-14T01:06:52.120Z,98344.94
2022-11-14T01:08:53.430Z,98336.53
2022-11-14T01:10:54.755Z,98335.69
2022-11-14T01:12:56.078Z,98334.94
2022-11-14T01:14:57.374Z,98335.81
2022-11-14T01:16:58.655Z,98329.06
2022-11-14T01:18:59.960Z,98327.47
2022-11-14T01:21:01.274Z,98319.84
2022-11-14T01:23:02.569Z,98322.44
2022-11-14T01:25:03.862Z,98325.88
2022-11-14T01:27:05.258Z,98320.75
2022-11-14T01:29:06.556Z,98323.31
2022-11-14T01:31:07.837Z,98310.47
2022-11-14T01:33:09.184Z,98304.41
2022-11-14T01:35:10.489Z,98298.38
2022-11-14T01:37:11.832Z,98294.03
2022-11-14T01:39:13.334Z,98281.09
2022-11-14T01:41:14.942Z,98281.66
2022-11-14T01:43:16.322Z,98279.78
2022-11-14T01:45:17.645Z,98267.75
2022-11-14T01:47:19.260Z,98263.41
2022-11-14T01:49:20.549Z,98265.00
2022-11-14T01:51:21.847Z,98258.97
2022-11-14T01:53:23.154Z,98261.44
2022-11-14T01:55:24.503Z,98249.38
2022-11-14T01:57:25.803Z,98243.38
2022-11-14T01:59:27.134Z,98255.38
2022-11-14T02:01:28.475Z,98251.16
2022-11-14T02:03:29.824Z,98249.50
2022-11-14T02:05:31.228Z,98251.22
2022-11-14T02:07:32.590Z,98249.56
2022-11-14T02:09:34.042Z,98250.44
2022-11-14T02:11:35.329Z,98258.16
2022-11-14T02:13:36.687Z,98260.72
2022-11-14T02:15:38.093Z,98247.28
2022-11-14T02:17:39.426Z,98247.44
2022-11-14T02:19:40.726Z,98239.84
2022-11-14T02:21:42.001Z,98248.47
2022-11-14T02:23:43.285Z,98238.31
2022-11-14T02:25:44.609Z,98243.53
2022-11-14T02:27:45.877Z,98236.84
2022-11-14T02:29:47.170Z,98232.63
2022-11-14T02:31:48.473Z,98233.59
2022-11-14T02:33:49.758Z,98227.66
2022-11-14T02:35:51.068Z,98125.19
2022-11-14T02:37:52.457Z,98231.16
2022-11-14T02:39:53.937Z,98235.47
2022-11-14T02:41:55.272Z,98235.50
2022-11-14T02:43:56.546Z,98226.16
2022-11-14T02:46:01.503Z,98220.25
2022-11-14T02:48:06.730Z,98227.06
2022-11-14T02:50:08.049Z,98220.19
2022-11-14T02:52:09.338Z,98221.84
2022-11-14T02:54:10.676Z,98226.91
2022-11-14T02:56:11.962Z,98219.19
2022-11-14T02:58:13.238Z,98215.59
2022-11-14T03:00:15.417Z,98222.31
2022-11-14T03:02:16.988Z,98223.03
2022-11-14T03:04:18.298Z,98220.34
2022-11-14T03:06:19.625Z,98213.44
2022-11-14T03:08:20.945Z,98215.88
2022-11-14T03:10:22.289Z,98216.59
2022-11-14T03:12:23.575Z,98217.44
2022-11-14T03:14:24.873Z,98221.44
2022-11-14T03:16:26.170Z,98220.41
2022-11-14T03:18:27.815Z,98224.59
2022-11-14T03:20:29.401Z,98216.78
2022-11-14T03:22:30.718Z,98205.56
2022-11-14T03:24:32.025Z,98212.41
2022-11-14T03:26:33.335Z,98213.28
2022-11-14T03:28:34.650Z,98207.34
2022-11-14T03:30:35.941Z,98211.75
2022-11-14T03:32:37.323Z,98206.69
2022-11-14T03:34:38.626Z,98210.22
2022-11-14T03:36:39.913Z,98207.00
2022-11-14T03:38:41.259Z,98205.34
2022-11-14T03:40:42.523Z,98201.19
2022-11-14T03:42:43.805Z,98199.63
2022-11-14T03:44:45.092Z,98200.63
2022-11-14T03:46:46.420Z,98207.56
2022-11-14T03:48:47.743Z,98207.69
2022-11-14T03:50:49.037Z,98204.41
2022-11-14T03:52:50.365Z,98201.88
2022-11-14T03:54:51.861Z,98199.41
2022-11-14T03:56:53.349Z,98202.00
2022-11-14T03:58:54.685Z,98195.31
2022-11-14T04:00:56.276Z,98194.53
2022-11-14T04:02:57.634Z,98201.41
2022-11-14T04:04:58.953Z,98193.78
2022-11-14T04:07:00.305Z,98192.19
2022-11-14T04:09:01.819Z,98188.00
2022-11-14T04:11:03.099Z,98183.78
2022-11-14T04:13:04.369Z,98182.03
2022-11-14T04:15:05.679Z,98185.44
2022-11-14T04:17:07.023Z,98181.91
2022-11-14T04:19:08.310Z,98177.53
2022-11-14T04:21:09.622Z,98174.88
2022-11-14T04:23:10.902Z,98174.69
2022-11-14T04:25:12.236Z,98172.78
2022-11-14T04:27:13.525Z,98171.72
2022-11-14T04:29:14.857Z,98174.09
2022-11-14T04:31:16.161Z,98173.06
2022-11-14T04:33:17.448Z,98166.94
2022-11-14T04:35:18.809Z,98165.16
2022-11-14T04:37:20.109Z,98161.63
2022-11-14T04:39:21.422Z,98107.81
2022-11-14T04:41:22.713Z,98157.28
2022-11-14T04:43:24.069Z,98159.78
2022-11-14T04:45:25.472Z,98152.91
2022-11-14T04:47:26.805Z,98153.78
2022-11-14T04:49:28.098Z,98158.88
2022-11-14T04:51:29.446Z,98163.22
2022-11-14T04:53:30.738Z,98153.78
2022-11-14T04:55:32.021Z,98152.13
2022-11-14T04:57:33.320Z,98154.75
2022-11-14T04:59:34.821Z,98153.13
2022-11-14T05:01:36.423Z,98147.28
2022-11-14T05:03:38.234Z,98149.13
2022-11-14T05:05:42.171Z,98149.28
2022-11-14T05:07:43.714Z,98140.06
2022-11-14T05:09:45.005Z,98139.34
2022-11-14T05:11:46.385Z,98138.72
2022-11-14T05:13:47.696Z,98134.09
2022-11-14T05:15:48.981Z,98142.47
2022-11-14T05:17:50.300Z,98133.31
2022-11-14T05:19:51.593Z,98135.22
2022-11-14T05:21:52.877Z,98135.28
2022-11-14T05:23:54.350Z,98133.66
2022-11-14T05:25:58.674Z,98140.91
2022-11-14T05:28:00.449Z,98130.09
2022-11-14T05:30:01.746Z,98131.47
2022-11-14T05:32:03.219Z,98132.50
2022-11-14T05:34:04.542Z,98127.81
2022-11-14T05:36:05.838Z,98117.22
2022-11-14T05:38:07.150Z,98119.38
2022-11-14T05:40:08.553Z,98120.84
2022-11-14T05:42:09.836Z,98116.41
2022-11-14T05:44:11.136Z,98117.03
2022-11-14T05:46:12.754Z,98113.53
2022-11-14T05:48:14.048Z,98110.00
2022-11-14T05:50:16.680Z,98112.44
2022-11-14T05:52:17.956Z,98104.66
2022-11-14T05:54:19.448Z,98095.28
2022-11-14T05:56:20.884Z,98099.38
2022-11-14T05:58:22.171Z,98101.00
2022-11-14T06:00:23.475Z,98100.03
2022-11-14T06:02:24.883Z,98101.78
2022-11-14T06:04:26.208Z,98102.59
2022-11-14T06:06:27.498Z,98097.47
2022-11-14T06:08:29.726Z,98101.66
2022-11-14T06:10:31.166Z,98097.31
2022-11-14T06:12:32.624Z,98112.63
2022-11-14T06:14:33.892Z,98104.09
2022-11-14T06:16:35.197Z,98114.38
2022-11-14T06:18:36.510Z,98116.88
2022-11-14T06:20:37.987Z,98118.63
2022-11-14T06:22:39.296Z,98122.03
2022-11-14T06:24:40.618Z,98117.84
2022-11-14T06:26:41.907Z,98118.75
2022-11-14T06:28:43.283Z,98126.50
2022-11-14T06:30:44.592Z,98122.38
2022-11-14T06:32:45.878Z,98122.47
2022-11-14T06:34:47.353Z,98139.59
2022-11-14T06:36:48.635Z,98136.38
2022-11-14T06:38:49.922Z,98133.94
2022-11-14T06:40:51.513Z,98145.13
2022-11-14T06:42:52.799Z,98140.16
2022-11-14T06:44:54.089Z,98142.00
2022-11-14T06:46:56.439Z,98154.88
2022-11-14T06:48:57.752Z,98158.41
2022-11-14T06:50:59.094Z,98151.69
2022-11-14T06:53:00.367Z,98157.75
2022-11-14T06:55:01.641Z,98154.44
2022-11-14T06:57:02.962Z,98163.06
2022-11-14T06:59:04.282Z,98153.75
2022-11-14T07:01:06.043Z,98142.81
2022-11-14T07:03:07.379Z,98148.88
2022-11-14T07:05:08.749Z,98037.78
2022-11-14T07:07:10.163Z,98143.00
2022-11-14T07:09:11.529Z,98137.91
2022-11-14T07:11:12.862Z,98134.47
2022-11-14T07:13:14.197Z,98139.47
2022-11-14T07:15:15.493Z,98130.03
2022-11-14T07:17:16.787Z,98125.63
2022-11-14T07:19:18.121Z,98125.44
2022-11-14T07:21:19.454Z,98127.84
2022-11-14T07:23:23.033Z,98131.16
2022-11-14T07:25:24.484Z,98137.00
2022-11-14T07:27:25.789Z,98126.69
2022-11-14T07:29:27.074Z,98129.06
2022-11-14T07:31:28.346Z,98124.75
2022-11-14T07:33:29.758Z,98122.13
2022-11-14T07:35:31.057Z,98117.81
2022-11-14T07:37:32.355Z,98110.91
2022-11-14T07:39:33.649Z,98115.19
2022-11-14T07:41:34.957Z,98116.03
2022-11-14T07:43:36.256Z,98109.19
2022-11-14T07:45:37.582Z,98114.22
2022-11-14T07:47:38.876Z,98093.78
2022-11-14T07:49:40.181Z,98104.84
2022-11-14T07:51:41.505Z,98114.22
2022-11-14T07:53:42.788Z,98105.72
2022-11-14T07:55:44.074Z,98104.06
2022-11-14T07:57:49.242Z,98100.69
2022-11-14T07:59:50.999Z,98106.75
2022-11-14T08:01:52.289Z,98105.03
2022-11-14T08:03:53.599Z,98105.03
2022-11-14T08:05:55.603Z,98114.47
2022-11-14T08:07:56.889Z,98111.97
2022-11-14T08:09:58.287Z,98111.25
2022-11-14T08:11:59.595Z,98103.69
2022-11-14T08:14:00.880Z,98109.69
2022-11-14T08:16:02.208Z,98118.22
2022-11-14T08:18:03.584Z,98109.75
2022-11-14T08:20:04.879Z,98107.25
2022-11-14T08:22:06.165Z,98100.47
2022-11-14T08:24:07.461Z,98109.88
2022-11-14T08:26:09.625Z,98106.53
2022-11-14T08:28:10.957Z,98108.25
2022-11-14T08:30:12.286Z,98109.09
2022-11-14T08:32:13.814Z,98104.84
2022-11-14T08:34:15.118Z,98099.75
2022-11-14T08:36:16.626Z,98103.16
2022-11-14T08:38:17.952Z,98098.03
2022-11-14T08:40:19.242Z,98087.84
2022-11-14T08:42:20.534Z,98087.00
2022-11-14T08:44:22.606Z,98085.25
2022-11-14T08:46:23.930Z,98081.78
2022-11-14T08:48:25.259Z,98083.44
2022-11-14T08:50:26.620Z,98085.91
2022-11-14T08:52:27.898Z,98082.41
2022-11-14T08:54:29.237Z,98083.19
2022-11-14T08:56:30.625Z,98082.28
2022-11-14T08:58:32.557Z,98083.91
2022-11-14T09:00:34.154Z,98086.41
2022-11-14T09:02:35.488Z,98091.44
2022-11-14T09:04:36.846Z,98085.44
2022-11-14T09:06:38.239Z,98092.25
2022-11-14T09:08:39.562Z,98103.31
2022-11-14T09:10:40.881Z,98098.16
2022-11-14T09:12:42.284Z,98104.13
2022-11-14T09:14:43.569Z,98112.59
2022-11-14T09:16:44.842Z,98104.06
2022-11-14T09:18:46.269Z,98111.72
2022-11-14T09:20:50.628Z,98113.47
2022-11-14T09:22:55.305Z,98107.53
2022-11-14T09:24:56.623Z,98099.75
2022-11-14T09:26:57.912Z,98113.38
2022-11-14T09:28:59.351Z,97980.59
2022-11-14T09:31:00.690Z,98110.88
2022-11-14T09:33:05.620Z,98103.22
2022-11-14T09:35:09.885Z,98104.91
2022-11-14T09:37:11.172Z,98111.72
2022-11-14T09:39:12.582Z,98105.72
2022-11-14T09:41:13.872Z,98100.72
2022-11-14T09:43:15.157Z,98107.53
2022-11-14T09:45:17.175Z,98110.03
2022-11-14T09:47:20.997Z,98111.78
2022-11-14T09:49:22.522Z,98116.91
2022-11-14T09:51:23.872Z,98116.84
2022-11-14T09:53:25.167Z,98118.59
2022-11-14T09:55:26.448Z,98105.88
2022-11-14T09:57:27.788Z,98111.78
2022-11-14T09:59:29.090Z,98116.94
2022-11-14T10:01:30.474Z,98100.78
2022-11-14T10:03:32.323Z,98098.22
2022-11-14T10:05:33.753Z,98099.88
2022-11-14T10:07:37.996Z,98102.34
2022-11-14T10:09:39.724Z,98087.91
2022-11-14T10:11:41.010Z,98090.44
2022-11-14T10:13:42.288Z,98083.63
2022-11-14T10:15:43.609Z,98087.03
2022-11-14T10:17:44.897Z,98083.63
2022-11-14T10:19:46.308Z,98080.16
2022-11-14T10:21:47.599Z,98075.81
2022-11-14T10:23:48.927Z,98076.66
2022-11-14T10:25:50.278Z,98069.78
2022-11-14T10:27:56.544Z,98080.03
2022-11-14T10:29:59.871Z,98081.72
2022-11-14T10:32:01.397Z,98080.03
2022-11-14T10:34:04.328Z,98077.50
2022-11-14T10:36:05.935Z,98076.66
2022-11-14T10:38:07.242Z,98078.38
2022-11-14T10:40:08.597Z,98088.66
2022-11-14T10:42:09.917Z,98080.25
2022-11-14T10:44:11.200Z,98082.81
2022-11-14T10:46:12.496Z,98082.88
2022-11-14T10:48:13.828Z,98082.03
2022-11-14T10:50:15.105Z,98086.41
2022-11-14T10:52:16.427Z,98083.81
2022-11-14T10:54:17.718Z,98076.19
2022-11-14T10:56:19.237Z,98082.22
2022-11-14T10:58:20.569Z,98094.16
2022-11-14T11:00:23.139Z,98089.88
2022-11-14T11:02:24.490Z,98091.59
2022-11-14T11:04:26.205Z,98087.34
2022-11-14T11:06:27.664Z,98095.00
2022-11-14T11:08:47.817Z,98104.47
2022-11-14T11:11:08.026Z,98099.34
2022-11-14T11:13:09.312Z,98098.53
2022-11-14T11:15:11.040Z,98098.56
2022-11-14T11:17:12.529Z,98095.16
2022-11-14T11:19:13.881Z,98096.03
2022-11-14T11:21:15.320Z,98100.28
2022-11-14T11:23:17.853Z,98104.53
2022-11-14T11:25:19.141Z,98107.09
2022-11-14T11:27:20.432Z,98089.19
2022-11-14T11:29:21.759Z,98090.94
2022-11-14T11:31:23.046Z,98100.34
2022-11-14T11:33:24.372Z,98098.63
2022-11-14T11:35:25.662Z,98094.38
2022-11-14T11:37:27.044Z,98096.03
2022-11-14T11:39:29.230Z,98090.06
2022-11-14T11:42:07.238Z,98089.25
2022-11-14T11:43:56.641Z,98089.25
2022-11-14T11:45:58.424Z,98085.00
2022-11-14T11:47:59.777Z,98085.81
2022-11-14T11:50:02.188Z,98094.38
2022-11-14T11:52:03.490Z,98093.56
2022-11-14T11:54:04.812Z,98086.72
2022-11-14T11:56:06.101Z,98079.03
2022-11-14T11:58:07.448Z,98098.63
2022-11-14T12:00:09.215Z,98085.91
2022-11-14T12:02:13.088Z,98082.47
2022-11-14T12:04:14.656Z,98089.31
2022-11-14T12:06:15.978Z,98091.84
2022-11-14T12:08:21.191Z,98079.91
2022-11-14T12:10:23.000Z,98076.50
2022-11-14T12:12:24.296Z,98080.81
2022-11-14T12:14:25.578Z,98088.47
2022-11-14T12:16:26.929Z,98083.31
2022-11-14T12:18:28.213Z,98078.25
2022-11-14T12:20:29.503Z,98074.00
2022-11-14T12:22:30.855Z,98077.34
2022-11-14T12:24:32.142Z,98074.81
2022-11-14T12:26:33.439Z,98069.69
2022-11-14T12:28:34.740Z,98074.81
2022-11-14T12:30:36.026Z,98067.97
2022-11-14T12:32:37.355Z,98068.81
2022-11-14T12:34:38.624Z,98066.28
2022-11-14T12:36:39.909Z,98063.72
2022-11-14T12:38:42.221Z,98058.56
2022-11-14T12:40:43.532Z,98054.34
2022-11-14T12:42:44.816Z,98058.59
2022-11-14T12:44:46.767Z,98051.00
2022-11-14T12:46:48.048Z,98051.00
2022-11-14T12:48:49.425Z,98036.53
2022-11-14T12:50:50.877Z,98036.53
2022-11-14T12:52:54.185Z,98028.88
2022-11-14T12:54:55.467Z,98021.22
2022-11-14T12:56:56.881Z,98029.72
2022-11-14T12:58:58.185Z,98027.09
2022-11-14T13:01:01.048Z,98010.94
2022-11-14T13:03:02.329Z,98015.19
2022-11-14T13:05:03.616Z,98016.03
2022-11-14T13:07:04.965Z,98010.09
2022-11-14T13:09:06.285Z,97997.38
2022-11-14T13:11:07.818Z,97998.22
2022-11-14T13:13:27.936Z,97993.16
2022-11-14T13:15:49.453Z,97997.41
2022-11-14T13:18:10.068Z,97999.97
2022-11-14T13:20:30.273Z,97992.31
2022-11-14T13:22:31.550Z,97986.34
2022-11-14T13:24:32.846Z,97988.00
2022-11-14T13:26:34.134Z,97984.59
2022-11-14T13:28:35.416Z,97977.78
2022-11-14T13:30:36.723Z,97977.72
2022-11-14T13:32:38.028Z,97981.13
2022-11-14T13:34:39.359Z,97984.53
2022-11-14T13:36:40.650Z,97985.31
2022-11-14T13:38:42.133Z,97986.16
2022-11-14T13:40:44.830Z,97985.31
2022-11-14T13:42:46.130Z,97973.59
2022-11-14T13:44:47.602Z,97971.09
2022-11-14T13:46:48.945Z,97966.91
2022-11-14T13:48:50.233Z,97960.97
2022-11-14T13:50:51.599Z,97956.00
2022-11-14T13:52:52.875Z,97952.66
2022-11-14T13:54:54.266Z,97949.38
2022-11-14T13:56:55.626Z,97946.81
2022-11-14T13:58:56.922Z,97942.50
2022-11-14T14:00:58.235Z,97945.84
2022-11-14T14:02:59.625Z,97944.09
2022-11-14T14:05:00.904Z,97938.97
2022-11-14T14:07:02.262Z,97935.56
2022-11-14T14:09:03.669Z,97930.38
2022-11-14T14:11:04.938Z,97938.84
2022-11-14T14:13:06.226Z,97950.75
2022-11-14T14:15:07.531Z,97940.47
2022-11-14T14:17:08.834Z,97938.75
2022-11-14T14:19:10.182Z,97941.22
2022-11-14T14:21:14.294Z,97957.28
2022-11-14T14:23:15.709Z,97944.59
2022-11-14T14:25:17.013Z,97945.41
2022-11-14T14:27:18.337Z,97957.28
2022-11-14T14:29:19.655Z,97955.53
2022-11-14T14:31:23.287Z,97946.97
2022-11-14T14:33:24.582Z,97945.31
2022-11-14T14:35:25.964Z,97953.72
2022-11-14T14:37:27.268Z,97955.47
2022-11-14T14:39:28.649Z,97948.63
2022-11-14T14:41:29.962Z,97951.13
2022-11-14T14:43:31.257Z,97951.97
2022-11-14T14:45:32.618Z,97957.88
2022-11-14T14:47:34.014Z,97952.75
2022-11-14T14:49:35.300Z,97948.50
2022-11-14T14:51:36.810Z,97948.50
2022-11-14T14:53:38.098Z,97952.75
2022-11-14T14:55:39.396Z,97948.50
2022-11-14T14:57:40.699Z,97956.19
2022-11-14T14:59:42.270Z,97940.06
2022-11-14T15:01:43.671Z,97935.84
2022-11-14T15:03:45.153Z,97935.88
2022-11-14T15:05:46.461Z,97934.22
2022-11-14T15:07:49.555Z,97935.91
2022-11-14T15:09:50.856Z,97940.19
2022-11-14T15:11:52.277Z,97947.06
2022-11-14T15:13:53.593Z,97946.28
2022-11-14T15:15:55.052Z,97942.94
2022-11-14T15:17:56.497Z,97954.00
2022-11-14T15:19:57.812Z,97957.41
2022-11-14T15:21:59.098Z,97951.44
2022-11-14T15:24:00.522Z,97951.44
2022-11-14T15:26:01.908Z,97961.72
2022-11-14T15:28:03.233Z,97956.63
2022-11-14T15:30:04.644Z,97959.19
2022-11-14T15:32:06.548Z,97954.97
2022-11-14T15:34:07.849Z,97960.94
2022-11-14T15:36:09.317Z,97960.94
2022-11-14T15:38:42.062Z,97956.66
2022-11-14T15:40:35.461Z,97959.25
2022-11-14T15:42:40.485Z,97953.28
2022-11-14T15:44:46.810Z,97950.69
2022-11-14T15:46:48.188Z,97960.03
2022-11-14T15:48:49.498Z,97957.47
2022-11-14T15:50:50.871Z,97958.31
2022-11-14T15:52:52.171Z,97960.88
2022-11-14T15:54:53.532Z,97959.19
2022-11-14T15:56:54.819Z,97950.53
2022-11-14T15:58:56.100Z,97939.34
2022-11-14T16:00:57.512Z,97932.41
2022-11-14T16:02:58.882Z,97931.94
2022-11-14T16:05:00.169Z,97919.94
2022-11-14T16:07:01.552Z,97913.84
2022-11-14T16:09:02.917Z,97907.16
2022-11-14T16:11:04.217Z,97900.59
2022-11-14T16:13:05.517Z,97851.91
2022-11-14T16:15:06.800Z,97901.44
2022-11-14T16:17:08.150Z,97901.19
2022-11-14T16:19:09.485Z,97900.75
2022-11-14T16:21:13.538Z,97896.56
2022-11-14T16:23:14.941Z,97899.28
2022-11-14T16:25:16.302Z,97900.56
2022-11-14T16:27:17.593Z,97896.06
2022-11-14T16:29:18.941Z,97897.59
2022-11-14T16:31:20.649Z,97907.72
2022-11-14T16:33:21.944Z,97901.78
2022-11-14T16:35:23.258Z,97907.84
2022-11-14T16:37:25.252Z,97908.41
2022-11-14T16:39:26.762Z,97915.91
2022-11-14T16:41:28.089Z,97910.16
2022-11-14T16:43:29.655Z,97906.84
2022-11-14T16:45:31.294Z,97913.63
2022-11-14T16:47:32.881Z,97910.59
2022-11-14T16:49:34.185Z,97914.38
2022-11-14T16:51:51.258Z,97905.72
2022-11-14T16:53:52.697Z,97901.09
2022-11-14T16:55:56.505Z,97897.00
2022-11-14T16:57:57.801Z,97903.38
2022-11-14T16:59:59.165Z,97901.81
2022-11-14T17:02:00.633Z,97912.94
2022-11-14T17:04:01.986Z,97909.53
2022-11-14T17:06:03.298Z,97912.09
2022-11-14T17:08:04.590Z,97902.38
2022-11-14T17:10:05.927Z,97910.81
2022-11-14T17:12:07.197Z,97914.53
2022-11-14T17:14:08.521Z,97915.00
2022-11-14T17:16:09.832Z,97913.88
2022-11-14T17:18:11.189Z,97924.59
2022-11-14T17:20:12.478Z,97923.69
2022-11-14T17:22:13.849Z,97921.81
2022-11-14T17:24:15.141Z,97922.53
2022-11-14T17:26:16.440Z,97924.94
2022-11-14T17:28:17.749Z,97928.97
2022-11-14T17:30:22.100Z,97934.72
2022-11-14T17:32:23.736Z,97924.28
2022-11-14T17:34:25.049Z,97928.28
2022-11-14T17:36:26.379Z,97924.63
2022-11-14T17:38:27.656Z,97920.69
2022-11-14T17:40:32.100Z,97924.31
2022-11-14T17:42:33.464Z,97802.44
2022-11-14T17:44:34.897Z,97924.97
2022-11-14T17:46:36.220Z,97924.72
2022-11-14T17:48:40.461Z,97920.81
2022-11-14T17:50:41.810Z,97917.09
2022-11-14T17:52:43.132Z,97916.63
2022-11-14T17:54:44.473Z,97920.72
2022-11-14T17:56:48.633Z,97916.41
2022-11-14T17:58:52.365Z,97912.72
2022-11-14T18:00:53.910Z,97912.59
2022-11-14T18:02:55.258Z,97905.81
2022-11-14T18:04:56.551Z,97916.91
2022-11-14T18:06:58.088Z,97914.25
2022-11-14T18:09:04.759Z,97914.28
2022-11-14T18:11:06.069Z,97902.56
2022-11-14T18:13:08.135Z,97902.88
2022-11-14T18:15:09.549Z,97904.72
2022-11-14T18:17:13.430Z,97897.22
2022-11-14T18:19:14.929Z,97899.56
2022-11-14T18:21:16.225Z,97906.19
2022-11-14T18:23:17.544Z,97915.22
2022-11-14T18:25:18.846Z,97904.91
2022-11-14T18:27:20.140Z,97902.34
2022-11-14T18:29:21.452Z,97900.66
2022-11-14T18:31:23.248Z,97905.84
2022-11-14T18:33:24.765Z,97902.66
2022-11-14T18:35:26.093Z,97898.88
2022-11-14T18:37:27.993Z,97899.03
2022-11-14T18:39:31.250Z,97890.56
2022-11-14T18:41:32.594Z,97889.34
2022-11-14T18:43:34.261Z,97883.31
2022-11-14T18:45:35.774Z,97883.84
2022-11-14T18:47:43.074Z,97880.81
2022-11-14T18:49:44.980Z,97885.25
2022-11-14T18:51:46.293Z,97879.38
2022-11-14T18:53:47.587Z,97880.28
2022-11-14T18:55:59.110Z,97878.59
2022-11-14T18:58:00.413Z,97882.78
2022-11-14T19:00:01.702Z,97880.09
2022-11-14T19:02:21.332Z,97879.88
2022-11-14T19:04:23.545Z,97872.91
2022-11-14T19:06:24.870Z,97869.22
2022-11-14T19:08:31.884Z,97875.91
2022-11-14T19:10:33.170Z,97870.56
2022-11-14T19:12:34.478Z,97878.97
2022-11-14T19:14:42.682Z,97870.47
2022-11-14T19:16:46.905Z,97870.66
2022-11-14T19:18:54.200Z,97869.00
2022-11-14T19:20:55.489Z,97868.38
2022-11-14T19:22:56.792Z,97869.72
2022-11-14T19:24:59.157Z,97862.59
2022-11-14T19:27:03.318Z,97861.13
2022-11-14T19:29:04.752Z,97866.38
2022-11-14T19:31:06.302Z,97859.34
2022-11-14T19:33:07.588Z,97857.13
2022-11-14T19:35:09.440Z,97854.38
2022-11-14T19:37:10.749Z,97862.31
2022-11-14T19:39:12.048Z,97854.03
2022-11-14T19:41:13.445Z,97859.16
2022-11-14T19:43:14.721Z,97863.44
2022-11-14T19:45:15.997Z,97866.00
2022-11-14T19:47:17.285Z,97865.25
2022-11-14T19:49:18.576Z,97860.13
2022-11-14T19:51:20.000Z,97863.56
2022-11-14T19:53:30.948Z,97861.84
2022-11-14T19:55:35.371Z,97868.34
2022-11-14T19:57:36.781Z,97864.34
2022-11-14T19:59:41.158Z,97866.91
2022-11-14T20:01:42.588Z,97862.91
2022-11-14T20:03:43.936Z,97864.13
2022-11-14T20:05:51.097Z,97864.81
2022-11-14T20:07:55.630Z,97866.53
2022-11-14T20:09:56.970Z,97861.41
2022-11-14T20:11:58.279Z,97866.63
2022-11-14T20:13:59.877Z,97862.38
2022-11-14T20:16:01.232Z,97860.47
2022-11-14T20:18:02.551Z,97864.50
2022-11-14T20:20:06.758Z,97859.72
2022-11-14T20:22:08.378Z,97861.66
2022-11-14T20:24:09.893Z,97863.59
2022-11-14T20:26:11.574Z,97862.78
2022-11-14T20:28:13.139Z,97861.03
2022-11-14T20:30:14.498Z,97865.31
2022-11-14T20:32:16.077Z,97858.72
2022-11-14T20:34:17.425Z,97851.22
2022-11-14T20:36:18.833Z,97845.72
2022-11-14T20:38:20.148Z,97841.50
2022-11-14T20:40:21.517Z,97848.19
2022-11-14T20:42:23.067Z,97853.53
2022-11-14T20:44:24.377Z,97840.59
2022-11-14T20:46:25.709Z,97844.47
2022-11-14T20:48:27.065Z,97828.53
2022-11-14T20:50:28.444Z,97835.13
2022-11-14T20:52:30.932Z,97840.50
2022-11-14T20:54:32.249Z,97828.31
2022-11-14T20:56:33.609Z,97831.72
2022-11-14T20:58:35.015Z,97826.66
2022-11-14T21:00:36.344Z,97819.06
2022-11-14T21:02:37.713Z,97823.41
2022-11-14T21:04:39.034Z,97817.59
2022-11-14T21:06:40.313Z,97821.09
2022-11-14T21:08:41.602Z,97824.59
2022-11-14T21:10:46.020Z,97821.25
2022-11-14T21:13:07.316Z,97821.38
2022-11-14T21:15:09.021Z,97827.47
2022-11-14T21:17:10.310Z,97824.13
2022-11-14T21:19:11.605Z,97822.56
2022-11-14T21:21:13.057Z,97821.78
2022-11-14T21:23:14.344Z,97808.28
2022-11-14T21:25:15.650Z,97806.66
2022-11-14T21:27:16.953Z,97813.53
2022-11-14T21:29:18.272Z,97815.28
2022-11-14T21:31:19.577Z,97815.34
2022-11-14T21:33:20.921Z,97797.56
2022-11-14T21:35:22.424Z,97784.88
2022-11-14T21:37:23.696Z,97780.69
2022-11-14T21:39:25.038Z,97778.22
2022-11-14T21:41:26.368Z,97776.53
2022-11-14T21:43:27.660Z,97771.47
2022-11-14T21:45:29.017Z,97768.06
2022-11-14T21:47:30.317Z,97774.06
2022-11-14T21:49:31.643Z,97764.72
2022-11-14T21:51:32.939Z,97769.84
2022-11-14T21:53:34.454Z,97769.91
2022-11-14T21:55:35.944Z,97775.06
2022-11-14T21:57:37.278Z,97772.56
2022-11-14T21:59:38.554Z,97777.69
2022-11-14T22:01:58.453Z,97773.47
2022-11-14T22:04:12.181Z,97776.75
2022-11-14T22:06:13.477Z,97781.88
2022-11-14T22:08:14.787Z,97791.28
2022-11-14T22:10:16.066Z,97784.53
2022-11-14T22:12:17.367Z,97781.19
2022-11-14T22:14:18.670Z,97782.03
2022-11-14T22:16:20.916Z,97777.91
2022-11-14T22:18:22.239Z,97785.56
2022-11-14T22:20:23.539Z,97777.91
2022-11-14T22:22:24.843Z,97782.19
2022-11-14T22:24:26.138Z,97772.88
2022-11-14T22:26:27.429Z,97774.63
2022-11-14T22:28:28.769Z,97776.38
2022-11-14T22:30:30.069Z,97777.25
2022-11-14T22:32:31.388Z,97778.94
2022-11-14T22:34:32.730Z,97777.28
2022-11-14T22:36:34.122Z,97787.50
2022-11-14T22:38:35.457Z,97790.09
2022-11-14T22:40:36.747Z,97782.50
2022-11-14T22:42:38.104Z,97786.75
2022-11-14T22:44:39.444Z,97790.16
2022-11-14T22:46:40.772Z,97793.56
2022-11-14T22:48:42.036Z,97790.22
2022-11-14T22:50:43.326Z,97782.56
2022-11-14T22:52:44.616Z,97787.69
2022-11-14T22:54:45.906Z,97785.19
2022-11-14T22:56:47.283Z,97777.59
2022-11-14T22:58:48.602Z,97768.25
2022-11-14T23:00:49.941Z,97774.13
2022-11-14T23:02:51.254Z,97781.72
2022-11-14T23:04:52.543Z,97774.09
2022-11-14T23:06:53.896Z,97769.84
2022-11-14T23:08:55.381Z,97763.94
2022-11-14T23:10:57.133Z,97756.34
2022-11-14T23:12:58.458Z,97759.69
2022-11-14T23:14:59.765Z,97753.69
2022-11-14T23:17:01.535Z,97753.56
2022-11-14T23:19:02.863Z,97756.91
2022-11-14T23:21:04.637Z,97752.66
2022-11-14T23:23:05.946Z,97756.91
2022-11-14T23:25:07.232Z,97755.22
2022-11-14T23:27:08.532Z,97756.09
2022-11-14T23:29:09.816Z,97759.50
2022-11-14T23:31:11.095Z,97758.66
2022-11-14T23:33:12.375Z,97762.13
2022-11-14T23:35:13.666Z,97768.09
2022-11-14T23:37:14.945Z,97767.28
2022-11-14T23:39:16.238Z,97764.78
2022-11-14T23:41:17.562Z,97770.75
2022-11-14T23:43:18.849Z,97768.19
2022-11-14T23:45:20.171Z,97782.63
2022-11-14T23:47:21.467Z,97774.19
2022-11-14T23:49:22.808Z,97779.22
2022-11-14T23:51:24.173Z,97775.00